Airfield :
LOGIN :

Register | Disclaimer

   EN    FR    IT 

 










Legend :    VFR   Marginal VFR   IFR   Intensive IFR   Very Intensive IFR
Visi :
Ceiling :
>= 8 km
>= 3000ft
5 to 8 km
1000 to 3000 ft
1500m to 5 km
500 to 1000 ft
800 to 1500m
200 to 500 ft
< 800m
< 200 ft
Symbols :   Thunderstorms  Fog  Heavy snow  Heavy precipitations  Wind > 20 kt
SIGMETs :     Misc.  Thunderstorms  Icing  Turbulence  Mountain Waves  Volcanic Ashes







- Airport Elevation : 913 ft
- Download approach charts


LFSX - Luxeuil

CURRENT METAR :
  • 191230Z AUTO 25003KT 170V330 9999 NCD 21/10 Q1020 NOSIG

EXPIRED METARs :
  • 191200Z AUTO 29003KT 220V360 9999 NCD 19/10 Q1020 NOSIG
  • 191130Z AUTO 26003KT 190V320 9999 NCD 19/10 Q1021 NOSIG
  • 191100Z AUTO VRB03KT 9999 NCD 18/10 Q1021 NOSIG
  • 191030Z AUTO VRB02KT 9999 NCD 17/11 Q1021 NOSIG
  • 191000Z AUTO VRB01KT 9999 NCD 16/11 Q1021 NOSIG

TAF TAF LFSX
Valid from the 19 at 09:00 until the 20 at 09:00 UTC


190800Z 1909/2009 VRB03KT CAVOK
TEMPO 2004/2008 3000 BR BKN003
PROB40
TEMPO 2005/2007 0600 FG
No reported NOTAMs for that airfield.



MET'MAP, your aeronautical weather chart ! - Copyright ORBIFLY December 2007 - Disclaimer

ORBIFLY MET'MAP TEAM :

Programming & Development : Alexandra Zaïnal
Concept & Development : Baudouin d'Aumeries
Co-Development & Prog : Marc-Olivier Méhu
Technical & hardware support : Manuel Goepfert

Contact : metmap@orbifly.com




SOURCES & CREDITS :

   NOAA